メインページ
METAR-TAF:

METAR-TAF

空港 :

キスム国際空港

キスム, ケニヤ

緯度: 00-06S, 経度: 034-45E, 海抜: 1157m

現時点の気象観測

当レポートは2時間22分前の21:00(UTC)に作成
北/北東の風 4kt
気温 23°C
湿度 61%
気圧 1016 hPa
視程10km以上
高度2100ftの雲はほとんどない
高度9000ftの雲は散在している
高度27000ftの千切れ雲あり

METAR: HKKI 242100Z 02004KT 9999 FEW021 SCT090 BKN270 23/15 Q1016

時間: 02:22 (23:22 UTC)

予報

当レポートは6時間22分前の17:00(UTC)に作成
予報は24日の 18時(UTC)から 25日の 18時(UTC)まで有効
西/南西の風 5kt
視程10km以上
高度2200ftの雲はほとんどない
24日の 20時(UTC)から 24日の 23時(UTC)まで徐々に
の風 kt
高度2100ftの雲はほとんどない
25日の 00時(UTC)から 25日の 06時(UTC)まで一時的に
高度2100ftの雲はほとんどない
高度8000ftの千切れ雲あり
25日の 12時(UTC)から 25日の 18時(UTC)まで一時的に
西/南西の風 10kt
高度2800ftの雲はほとんどない, 積乱雲.
高度9000ftの千切れ雲あり

TAF: HKKI 241700Z 2418/2518 24005KT 9999 FEW022 BECMG 2420/2423 00000KT FEW021 TEMPO 2500/2506 FEW021 BKN080 TEMPO 2512/2518 24010KT FEW028CB BKN090

4,000以上の空港の気象観測と天気予報(METAR報とTAF報)

利用可能な観測所は地図上に黄色い丸と赤い丸で示す。

丸の上にカーソルを重ねると観測所名を参照できる。

次にクリックすると気象観測と天気予報を参照できる。

マップの切り替え:黒色「×」印の緑ボタンをクリックして拡大、「-」印の緑ボタンをクリックして縮小、緑色の三角印をクリックして隣りの地図に切り替え


METAR-TAF: